Time;durP1;ratioP1;P1;durP2;ratioP2;P2;SDS_P1;SDS_P2;PMS_P1;PMS_P2;Temp;Humidity;BMP_temperature;BMP_pressure;BME280_temperature;BME280_humidity;BME280_pressure;Samples;Min_cycle;Max_cycle;Signal;HPM_P1;HPM_P2
2023/07/11 00:01:01;;;;;;;12.13;5.20;;;;;;;21.55;92.48;98799.28;4485255;31;20533;-68
2023/07/11 00:03:29;;;;;;;7.97;5.30;;;;;;;21.52;92.75;98799.69;4485259;31;20145;-68
2023/07/11 00:06:01;;;;;;;7.20;5.10;;;;;;;21.48;92.76;98795.78;4485152;31;20108;-68
2023/07/11 00:08:29;;;;;;;9.70;5.45;;;;;;;21.49;92.94;98786.75;4485376;31;20378;-68
2023/07/11 00:10:57;;;;;;;6.65;4.80;;;;;;;21.59;91.81;98794.34;4485208;31;20157;-68
2023/07/11 00:13:24;;;;;;;6.22;5.05;;;;;;;21.53;92.40;98793.34;4485089;31;20095;-68
2023/07/11 00:15:57;;;;;;;9.32;5.50;;;;;;;21.50;92.61;98792.94;4485274;31;20096;-68
2023/07/11 00:18:26;;;;;;;;;;;;;;;21.48;93.10;98794.97;4485468;32;20127;-68
2023/07/11 00:20:54;;;;;;;9.38;4.62;;;;;;;21.48;93.42;98793.09;4485031;32;19980;-68
2023/07/11 00:23:23;;;;;;;12.10;5.05;;;;;;;21.47;93.63;98787.97;4485007;31;20176;-68
2023/07/11 00:25:50;;;;;;;10.18;5.18;;;;;;;21.51;93.53;98786.59;4485048;31;20110;-68
2023/07/11 00:28:19;;;;;;;8.13;5.80;;;;;;;21.45;93.99;98786.38;4484767;31;20473;-68
2023/07/11 00:30:48;;;;;;;9.95;4.72;;;;;;;21.42;94.27;98784.13;4485008;31;20168;-68
2023/07/11 00:33:16;;;;;;;7.15;4.72;;;;;;;21.40;94.20;98783.47;4484889;31;20119;-68
2023/07/11 00:35:46;;;;;;;8.95;5.68;;;;;;;21.42;94.03;98776.13;4483934;31;20472;-68
2023/07/11 00:38:13;;;;;;;7.35;4.70;;;;;;;21.46;93.85;98773.84;4484957;31;20096;-68
2023/07/11 00:40:42;;;;;;;6.97;4.82;;;;;;;21.49;93.50;98769.97;4484832;31;20243;-68
2023/07/11 00:43:13;;;;;;;9.27;4.62;;;;;;;21.47;93.52;98769.31;4485224;31;20114;-68
2023/07/11 00:46:11;;;;;;;10.70;4.75;;;;;;;21.41;93.87;98774.47;4484732;31;20108;-68
2023/07/11 00:48:42;;;;;;;6.80;4.40;;;;;;;21.36;94.08;98768.97;4483431;32;20089;-68
2023/07/11 00:51:11;;;;;;;6.57;4.97;;;;;;;21.44;93.64;98773.25;4483485;32;20675;-68
2023/07/11 00:53:40;;;;;;;7.95;5.05;;;;;;;21.49;93.22;98761.97;4470650;32;20495;-68
2023/07/11 00:56:12;;;;;;;6.72;4.72;;;;;;;21.50;92.85;98764.44;4483560;32;20098;-68
2023/07/11 00:58:41;;;;;;;7.28;4.68;;;;;;;21.53;92.59;98765.84;4483656;32;20103;-68
2023/07/11 01:01:09;;;;;;;6.62;4.60;;;;;;;21.60;92.06;98764.00;4483243;32;20097;-68
2023/07/11 01:03:37;;;;;;;8.32;4.37;;;;;;;21.61;91.92;98769.13;4483480;32;20108;-68
2023/07/11 01:06:13;;;;;;;5.68;4.03;;;;;;;21.61;91.60;98765.66;4483536;32;20122;-68
2023/07/11 01:08:43;;;;;;;5.57;4.30;;;;;;;21.65;91.38;98763.38;4484677;31;20080;-68
2023/07/11 01:11:11;;;;;;;7.62;4.45;;;;;;;21.75;90.78;98761.91;4484453;31;20089;-68
2023/07/11 01:13:40;;;;;;;6.47;4.30;;;;;;;21.77;90.59;98759.03;4484453;31;20092;-68
2023/07/11 01:16:08;;;;;;;5.45;4.05;;;;;;;21.80;90.36;98756.78;4484621;31;20084;-68
2023/07/11 01:18:36;;;;;;;6.07;4.55;;;;;;;21.80;90.31;98756.78;4484480;31;20092;-68
2023/07/11 01:21:05;;;;;;;7.07;4.45;;;;;;;21.85;90.05;98757.97;4484463;31;20089;-68
2023/07/11 01:23:33;;;;;;;6.12;4.30;;;;;;;21.79;90.04;98760.47;4484675;31;20416;-68
2023/07/11 01:26:06;;;;;;;8.50;4.47;;;;;;;21.78;90.01;98756.16;4484819;31;20107;-68
2023/07/11 01:28:35;;;;;;;7.95;4.93;;;;;;;21.83;89.71;98760.84;4484448;31;20112;-68
2023/07/11 01:31:03;;;;;;;10.20;4.30;;;;;;;21.84;89.44;98754.50;4484342;31;20206;-68
2023/07/11 01:33:33;;;;;;;5.57;4.10;;;;;;;21.92;88.48;98764.13;4484278;31;20175;-68
2023/07/11 01:36:02;;;;;;;4.95;4.40;;;;;;;21.98;87.57;98752.59;4484058;31;20149;-68
2023/07/11 01:38:30;;;;;;;6.25;4.43;;;;;;;22.09;86.86;98751.94;4483075;32;20104;-68
2023/07/11 01:40:58;;;;;;;9.32;5.00;;;;;;;22.13;86.32;98752.34;4484144;31;20100;-68
2023/07/11 01:43:26;;;;;;;5.72;4.22;;;;;;;22.15;86.01;98739.62;4484006;31;20112;-68
2023/07/11 01:45:53;;;;;;;6.45;4.37;;;;;;;22.18;85.89;98741.84;4482827;32;20119;-68
2023/07/11 01:48:25;;;;;;;8.32;4.45;;;;;;;22.20;85.51;98742.44;4484858;32;20147;-68
2023/07/11 01:50:52;;;;;;;8.65;4.55;;;;;;;22.18;85.67;98743.69;4486206;32;20100;-68
2023/07/11 01:53:25;;;;;;;6.70;4.55;;;;;;;22.17;85.41;98736.72;4486423;31;20084;-68
2023/07/11 01:56:01;;;;;;;6.22;4.62;;;;;;;22.19;85.20;98724.00;4486148;31;20394;-68
2023/07/11 01:58:30;;;;;;;8.10;4.47;;;;;;;22.20;84.97;98723.78;4486161;31;20072;-68
2023/07/11 02:00:59;;;;;;;7.57;5.00;;;;;;;22.24;84.81;98730.31;4484951;32;20100;-68
2023/07/11 02:03:26;;;;;;;9.75;4.70;;;;;;;22.26;85.08;98730.13;4486017;31;20143;-68
2023/07/11 02:05:55;;;;;;;10.13;4.68;;;;;;;22.29;84.92;98730.50;4486044;31;20084;-68
2023/07/11 02:08:22;;;;;;;9.18;4.53;;;;;;;22.35;84.86;98726.19;4485862;31;20206;-68
2023/07/11 02:10:49;;;;;;;6.65;4.45;;;;;;;22.40;84.67;98729.03;4486045;32;20089;-68
2023/07/11 02:13:17;;;;;;;8.52;4.85;;;;;;;22.44;84.29;98730.22;4485725;31;20122;-68
2023/07/11 02:15:46;;;;;;;5.53;4.20;;;;;;;22.46;84.50;98725.47;4486066;31;20171;-68
2023/07/11 02:18:13;;;;;;;5.95;4.60;;;;;;;22.45;84.95;98725.69;4485912;32;20107;-68
2023/07/11 02:20:44;;;;;;;5.70;4.57;;;;;;;22.47;84.85;98729.81;4485810;32;20124;-68
2023/07/11 02:23:12;;;;;;;9.40;4.70;;;;;;;22.45;85.41;98737.22;4485981;31;20152;-68
2023/07/11 02:25:40;;;;;;;8.45;4.90;;;;;;;22.48;85.82;98728.78;4485816;31;20171;-68
2023/07/11 02:28:08;;;;;;;7.50;4.80;;;;;;;22.49;85.87;98725.06;4485988;31;20514;-68
2023/07/11 02:30:35;;;;;;;8.75;4.82;;;;;;;22.41;86.42;98719.19;4485890;31;20095;-68
2023/07/11 02:33:04;;;;;;;6.53;4.78;;;;;;;22.37;86.55;98713.44;4486195;31;20152;-68
2023/07/11 02:35:33;;;;;;;5.43;4.53;;;;;;;22.39;86.26;98722.06;4484572;32;20608;-68
2023/07/11 02:38:01;;;;;;;6.70;4.70;;;;;;;22.35;86.32;98720.00;4485793;31;20123;-68
2023/07/11 02:40:28;;;;;;;8.95;4.82;;;;;;;22.25;86.70;98717.78;4485903;31;20649;-68
2023/07/11 02:42:58;;;;;;;7.47;4.50;;;;;;;22.23;87.03;98717.19;4485867;32;20529;-68
2023/07/11 02:45:26;;;;;;;7.43;4.62;;;;;;;22.24;87.26;98714.31;4485836;31;20457;-68
2023/07/11 02:47:53;;;;;;;7.62;4.95;;;;;;;22.22;87.31;98726.22;4484682;32;20114;-68
2023/07/11 02:50:20;;;;;;;13.20;4.65;;;;;;;22.20;87.58;98725.63;4485630;32;20141;-68
2023/07/11 02:52:48;;;;;;;6.65;4.93;;;;;;;22.15;88.04;98721.75;4484664;32;20100;-68
2023/07/11 02:55:15;;;;;;;9.93;4.60;;;;;;;22.06;88.70;98733.69;4485730;31;20156;-68
2023/07/11 02:57:44;;;;;;;6.90;4.90;;;;;;;22.00;89.27;98728.37;4485298;31;20085;-68
2023/07/11 03:00:12;;;;;;;6.93;4.70;;;;;;;21.95;89.81;98723.69;4485719;32;20092;-68
2023/07/11 03:02:39;;;;;;;7.90;4.87;;;;;;;21.98;90.06;98720.59;4485715;32;20084;-68
2023/07/11 03:05:06;;;;;;;7.15;4.78;;;;;;;21.90;90.77;98724.31;4485687;32;20096;-68
2023/07/11 03:07:35;;;;;;;9.98;5.12;;;;;;;21.91;91.12;98736.63;4485710;31;20101;-68
2023/07/11 03:10:04;;;;;;;7.20;4.62;;;;;;;21.86;91.95;98740.97;4485458;31;20119;-68
2023/07/11 03:12:32;;;;;;;8.75;4.70;;;;;;;21.85;92.56;98739.31;4485660;31;20108;-68
2023/07/11 03:14:59;;;;;;;6.97;4.85;;;;;;;21.82;93.01;98743.25;4485252;31;20122;-68
2023/07/11 03:17:31;;;;;;;8.05;4.70;;;;;;;21.78;93.44;98742.81;4485547;31;20106;-68
2023/07/11 03:19:59;;;;;;;9.23;5.30;;;;;;;21.78;93.82;98748.16;4485367;31;20171;-68
2023/07/11 03:22:27;;;;;;;7.45;4.87;;;;;;;21.78;94.14;98752.69;4485792;31;20571;-68
2023/07/11 03:24:54;;;;;;;10.25;4.97;;;;;;;21.72;94.62;98743.66;4485448;31;20553;-68
2023/07/11 03:27:22;;;;;;;8.65;4.60;;;;;;;21.64;95.38;98740.44;4485608;32;20595;-68
2023/07/11 03:29:49;;;;;;;7.78;5.07;;;;;;;21.70;95.26;98742.25;4485297;32;20482;-68
2023/07/11 03:32:16;;;;;;;8.23;5.50;;;;;;;21.72;95.15;98737.53;4485743;32;20885;-68
2023/07/11 03:34:43;;;;;;;9.02;5.12;;;;;;;21.71;95.06;98739.38;4485431;32;20143;-68
2023/07/11 03:37:24;;;;;;;9.68;5.37;;;;;;;21.73;94.95;98739.97;4485806;32;20331;-68
2023/07/11 03:39:51;;;;;;;6.25;4.82;;;;;;;21.72;94.98;98742.84;4485143;31;20156;-68
2023/07/11 03:42:19;;;;;;;9.02;5.25;;;;;;;21.74;94.93;98746.13;4485518;31;20494;-68
2023/07/11 03:44:46;;;;;;;7.37;4.70;;;;;;;21.83;94.75;98746.72;4485213;31;20610;-68
2023/07/11 03:47:14;;;;;;;6.80;5.00;;;;;;;21.79;94.80;98749.81;4485412;31;20122;-68
2023/07/11 03:49:41;;;;;;;7.72;4.75;;;;;;;21.84;94.78;98745.69;4483764;32;20394;-68
2023/07/11 03:52:08;;;;;;;7.65;5.87;;;;;;;21.83;94.89;98749.38;4485253;31;20108;-68
2023/07/11 03:54:36;;;;;;;7.45;5.18;;;;;;;21.89;94.76;98748.53;4485323;31;20118;-68
2023/07/11 03:57:04;;;;;;;11.35;5.50;;;;;;;21.93;94.68;98752.44;4485311;31;20092;-68
2023/07/11 03:59:32;;;;;;;7.00;4.57;;;;;;;21.92;94.97;98750.78;4485041;31;20165;-68
2023/07/11 04:02:00;;;;;;;11.63;5.70;;;;;;;21.98;94.67;98747.25;4484838;31;20096;-68
2023/07/11 04:04:28;;;;;;;7.22;4.78;;;;;;;21.95;94.38;98748.53;4484140;31;20093;-68
2023/07/11 04:06:57;;;;;;;7.15;4.90;;;;;;;21.93;94.57;98747.09;4484623;31;20097;-68
2023/07/11 04:09:25;;;;;;;8.85;5.22;;;;;;;22.03;94.15;98747.47;4484031;31;20085;-68
2023/07/11 04:11:52;;;;;;;9.43;5.65;;;;;;;22.05;93.09;98748.06;4484545;31;20489;-68
2023/07/11 04:14:20;;;;;;;7.30;5.93;;;;;;;22.20;90.87;98736.31;4485124;31;20114;-68
2023/07/11 04:16:47;;;;;;;9.68;5.72;;;;;;;22.31;89.37;98743.66;4483763;32;20115;-68
2023/07/11 04:19:16;;;;;;;7.40;5.45;;;;;;;22.49;87.50;98749.06;4484953;32;20168;-68
2023/07/11 04:21:44;;;;;;;7.15;5.57;;;;;;;22.67;85.58;98752.88;4484797;31;20096;-68
2023/07/11 04:24:11;;;;;;;11.98;5.32;;;;;;;22.79;84.48;98759.16;4483705;32;20199;-68
2023/07/11 04:26:39;;;;;;;9.10;5.70;;;;;;;22.84;83.95;98753.97;4483872;31;20101;-68
2023/07/11 04:29:06;;;;;;;8.00;5.78;;;;;;;22.90;83.72;98749.63;4484768;31;20142;-68
2023/07/11 04:31:35;;;;;;;11.82;5.53;;;;;;;22.92;83.85;98749.41;4484985;31;20100;-68
2023/07/11 04:34:02;;;;;;;9.55;5.22;;;;;;;22.99;82.82;98755.50;4484799;31;20119;-68
2023/07/11 04:36:30;;;;;;;9.35;5.43;;;;;;;23.06;82.47;98756.28;4484943;32;20110;-68
2023/07/11 04:38:57;;;;;;;10.13;5.72;;;;;;;23.13;81.96;98765.06;4484159;32;20461;-68
2023/07/11 04:41:27;;;;;;;12.10;5.32;;;;;;;23.25;81.33;98753.69;4484462;31;20431;-68
2023/07/11 04:43:55;;;;;;;8.00;5.60;;;;;;;23.32;80.54;98759.78;4484819;31;20092;-68
2023/07/11 04:46:22;;;;;;;8.23;5.68;;;;;;;23.37;80.45;98754.59;4484822;31;20484;-68
2023/07/11 04:48:51;;;;;;;9.63;5.40;;;;;;;23.38;80.42;98756.22;4484768;31;20147;-68
2023/07/11 04:51:18;;;;;;;8.85;5.70;;;;;;;23.39;80.19;98753.34;4484741;31;20160;-68
2023/07/11 04:53:45;;;;;;;8.20;5.95;;;;;;;23.37;80.72;98758.06;4483318;32;20631;-68
2023/07/11 04:56:15;;;;;;;12.30;5.53;;;;;;;23.45;80.68;98761.50;4484683;31;20150;-68
2023/07/11 04:58:43;;;;;;;11.70;5.62;;;;;;;23.47;80.43;98762.91;4484295;31;20092;-68
2023/07/11 05:01:14;;;;;;;10.52;6.50;;;;;;;23.49;80.81;98760.03;4484402;31;20510;-68
2023/07/11 05:03:41;;;;;;;8.85;4.87;;;;;;;23.50;80.81;98759.00;4481244;32;20148;-68
2023/07/11 05:06:09;;;;;;;11.57;5.95;;;;;;;23.65;79.37;98766.63;4482577;31;20104;-68
2023/07/11 05:08:41;;;;;;;6.62;4.97;;;;;;;23.76;78.78;98760.56;4480460;31;20756;-68
2023/07/11 05:11:14;;;;;;;7.28;6.18;;;;;;;23.84;78.40;98760.25;4483275;31;20156;-68
2023/07/11 05:13:44;;;;;;;9.80;5.78;;;;;;;23.92;77.86;98765.34;4484510;31;20088;-68
2023/07/11 05:16:17;;;;;;;9.70;6.05;;;;;;;23.98;78.02;98760.97;4480954;31;20104;-68
2023/07/11 05:18:46;;;;;;;8.55;5.60;;;;;;;24.06;77.36;98763.31;4482526;31;20150;-68
2023/07/11 05:21:16;;;;;;;8.02;5.20;;;;;;;24.34;76.40;98769.94;4484327;31;20149;-68
2023/07/11 05:23:44;;;;;;;7.55;5.47;;;;;;;24.38;76.05;98765.78;4486259;31;20091;-68
2023/07/11 05:26:12;;;;;;;8.77;5.47;;;;;;;24.39;75.75;98770.09;4484213;31;20119;-68
2023/07/11 05:28:43;;;;;;;10.48;6.05;;;;;;;24.49;75.45;98772.22;4487698;31;20518;-68
2023/07/11 05:31:12;;;;;;;8.13;5.25;;;;;;;24.35;75.67;98776.94;4486750;31;20107;-68
2023/07/11 05:33:41;;;;;;;10.65;5.70;;;;;;;24.40;75.84;98769.03;4489624;31;20083;-68
2023/07/11 05:36:31;;;;;;;9.52;5.50;;;;;;;24.33;75.92;98783.56;4485391;31;20171;-68
2023/07/11 05:39:03;;;;;;;8.45;5.70;;;;;;;24.35;75.89;98778.81;4486540;31;20112;-68
2023/07/11 05:41:32;;;;;;;9.68;5.57;;;;;;;24.43;75.11;98783.84;4485122;31;20099;-68
2023/07/11 05:44:00;;;;;;;9.43;5.47;;;;;;;24.40;75.08;98779.75;4484219;31;20537;-68
2023/07/11 05:46:28;;;;;;;8.98;5.90;;;;;;;24.43;75.47;98794.56;4485165;31;20488;-68
2023/07/11 05:48:57;;;;;;;10.05;5.72;;;;;;;24.39;76.07;98793.38;4485045;31;20895;-68
2023/07/11 05:51:25;;;;;;;8.65;6.25;;;;;;;24.37;76.97;98798.13;4482834;31;20381;-68
2023/07/11 05:53:52;;;;;;;9.30;6.28;;;;;;;24.27;77.78;98794.16;4483249;31;20088;-68
2023/07/11 05:56:20;;;;;;;10.35;6.40;;;;;;;24.45;78.25;98797.81;4483167;31;20093;-68
2023/07/11 05:58:50;;;;;;;10.27;6.28;;;;;;;24.52;79.32;98797.75;4480828;31;20438;-68
2023/07/11 06:01:26;;;;;;;15.45;6.35;;;;;;;24.33;80.04;98794.28;4487289;31;20518;-68
2023/07/11 06:04:06;;;;;;;10.57;6.15;;;;;;;24.37;80.95;98801.62;4483887;31;20107;-68
2023/07/11 06:06:40;;;;;;;9.73;6.25;;;;;;;24.31;79.92;98794.50;4477061;31;20123;-68
2023/07/11 06:09:17;;;;;;;11.12;6.70;;;;;;;24.31;80.94;98796.37;4478544;31;20084;-68
2023/07/11 06:11:47;;;;;;;10.48;6.47;;;;;;;24.44;79.86;98806.91;4479926;31;20096;-68
2023/07/11 06:14:16;;;;;;;8.43;6.57;;;;;;;24.53;79.58;98805.53;4480091;31;20119;-67
2023/07/11 06:16:44;;;;;;;10.60;6.30;;;;;;;24.53;78.27;98805.53;4477836;31;20620;-68
2023/07/11 06:19:17;;;;;;;11.80;6.17;;;;;;;24.63;78.49;98807.69;4480538;31;20101;-68
2023/07/11 06:21:44;;;;;;;7.60;5.82;;;;;;;24.67;77.63;98805.41;4481964;31;20092;-68
2023/07/11 06:24:12;;;;;;;8.93;5.93;;;;;;;24.75;76.41;98802.38;4481881;31;20116;-68
2023/07/11 06:26:41;;;;;;;9.13;6.18;;;;;;;24.92;75.85;98808.72;4478562;31;20093;-68
2023/07/11 06:29:08;;;;;;;9.68;6.43;;;;;;;24.78;75.82;98808.12;4477665;31;20148;-68
2023/07/11 06:31:35;;;;;;;8.55;5.72;;;;;;;24.77;76.20;98806.47;4478861;31;20100;-69
2023/07/11 06:34:02;;;;;;;8.30;5.97;;;;;;;25.04;75.96;98807.91;4477069;31;20150;-68
2023/07/11 06:36:30;;;;;;;12.60;6.50;;;;;;;25.27;74.97;98815.16;4480575;31;20123;-68
2023/07/11 06:38:57;;;;;;;7.30;5.85;;;;;;;25.15;nan;98807.94;4479810;31;20127;-69
2023/07/11 06:41:28;;;;;;;8.32;5.60;;;;;;;25.17;75.46;98810.38;4479731;31;20146;-69
2023/07/11 06:43:56;;;;;;;11.05;5.35;;;;;;;25.32;73.74;98813.47;4479381;31;20154;-68
2023/07/11 06:46:24;;;;;;;6.82;5.53;;;;;;;25.25;72.29;98811.91;4480986;31;20130;-68
2023/07/11 06:48:54;;;;;;;9.02;5.55;;;;;;;25.27;71.53;98807.97;4479382;31;20112;-68
2023/07/11 06:51:21;;;;;;;6.55;5.35;;;;;;;25.47;72.55;98810.31;4480866;31;20120;-68
2023/07/11 06:53:49;;;;;;;8.27;5.78;;;;;;;25.46;71.29;98810.56;4478929;31;20589;-68
2023/07/11 06:56:16;;;;;;;8.88;5.53;;;;;;;25.49;71.76;98813.56;4482383;32;20164;-68
2023/07/11 06:58:44;;;;;;;10.98;5.60;;;;;;;25.39;71.75;98809.84;4480766;31;20183;-68
2023/07/11 07:01:12;;;;;;;6.90;5.65;;;;;;;25.64;71.16;98810.44;4479835;31;21061;-68
2023/07/11 07:04:00;;;;;;;11.98;5.30;;;;;;;25.75;70.41;98811.47;4478769;31;20578;-68
2023/07/11 07:06:30;;;;;;;6.85;5.68;;;;;;;26.00;69.37;98810.41;4481729;31;20107;-68
2023/07/11 07:09:00;;;;;;;8.80;5.68;;;;;;;25.89;68.90;98812.06;4473980;31;20171;-68
2023/07/11 07:11:27;;;;;;;11.60;6.25;;;;;;;26.17;68.26;98810.50;4474553;31;20153;-68
2023/07/11 07:13:55;;;;;;;7.47;5.50;;;;;;;26.35;68.47;98821.06;4478432;31;20513;-68
2023/07/11 07:16:36;;;;;;;8.48;5.97;;;;;;;26.50;68.62;98812.47;4481617;31;20156;-68
2023/07/11 07:19:04;;;;;;;16.42;5.93;;;;;;;26.71;67.23;98816.38;4476281;31;20611;-68
2023/07/11 07:21:32;;;;;;;10.27;5.57;;;;;;;26.88;66.56;98812.91;4482728;31;20488;-68
2023/07/11 07:23:59;;;;;;;8.88;5.65;;;;;;;27.01;66.26;98817.97;4478403;31;20487;-68
2023/07/11 07:26:27;;;;;;;9.45;5.85;;;;;;;27.02;64.92;98814.22;4472557;31;20097;-68
2023/07/11 07:28:55;;;;;;;5.90;4.97;;;;;;;26.89;65.27;98823.41;4477080;31;20115;-68
2023/07/11 07:31:23;;;;;;;7.50;5.12;;;;;;;27.09;65.10;98820.25;4477776;31;20118;-68
2023/07/11 07:33:50;;;;;;;8.05;5.57;;;;;;;26.88;63.40;98829.84;4479265;31;20135;-68
2023/07/11 07:36:19;;;;;;;6.97;5.85;;;;;;;26.80;63.07;98821.34;4478621;31;20156;-68
2023/07/11 07:38:47;;;;;;;9.15;5.30;;;;;;;26.78;63.69;98823.47;4477725;31;20119;-68
2023/07/11 07:41:14;;;;;;;7.68;5.50;;;;;;;26.86;64.18;98834.66;4480032;31;20101;-68
2023/07/11 07:43:45;;;;;;;11.52;5.72;;;;;;;26.96;63.17;98828.63;4480829;31;20478;-68
2023/07/11 07:46:15;;;;;;;13.90;5.43;;;;;;;26.83;63.87;98831.62;4479966;31;20481;-68
2023/07/11 07:48:46;;;;;;;8.82;5.50;;;;;;;26.72;63.92;98834.16;4477404;31;20112;-68
2023/07/11 07:51:18;;;;;;;9.73;5.22;;;;;;;26.84;64.40;98835.94;4479551;31;20110;-68
2023/07/11 07:53:46;;;;;;;8.48;5.47;;;;;;;27.16;64.85;98832.72;4481355;31;20088;-68
2023/07/11 07:56:16;;;;;;;15.80;6.40;;;;;;;27.35;64.14;98839.50;4482689;31;20115;-68
2023/07/11 07:58:43;;;;;;;9.88;6.32;;;;;;;27.31;62.95;98834.84;4479063;31;20134;-68
2023/07/11 08:01:15;;;;;;;7.20;5.93;;;;;;;27.51;62.20;98843.25;4480996;31;20135;-68
2023/07/11 08:03:44;;;;;;;7.10;6.22;;;;;;;27.26;62.44;98833.69;4480976;31;20093;-68
2023/07/11 08:06:16;;;;;;;6.70;5.60;;;;;;;27.22;62.75;98840.63;4478960;31;20111;-68
2023/07/11 08:08:46;;;;;;;8.23;5.72;;;;;;;27.42;62.15;98839.38;4477404;31;20100;-68
2023/07/11 08:11:17;;;;;;;7.43;5.60;;;;;;;27.51;62.34;98847.81;4476505;31;20526;-68
2023/07/11 08:13:45;;;;;;;7.90;5.90;;;;;;;27.68;58.92;98839.75;4482916;31;20142;-68
2023/07/11 08:16:27;;;;;;;7.43;6.00;;;;;;;27.72;59.74;98846.22;4478672;31;20083;-68
2023/07/11 08:19:00;;;;;;;;;;;;;;;27.93;60.96;98845.47;4483356;31;20144;-68
2023/07/11 08:21:28;;;;;;;5.97;5.30;;;;;;;28.08;57.29;98847.56;4480676;31;20043;-68
2023/07/11 08:23:55;;;;;;;7.93;5.60;;;;;;;28.21;57.50;98838.31;4477385;31;20477;-68
2023/07/11 08:26:23;;;;;;;6.53;5.47;;;;;;;28.15;55.66;98844.69;4477683;31;20108;-68
2023/07/11 08:28:51;;;;;;;6.72;5.53;;;;;;;28.35;55.52;98854.91;4476660;31;20630;-68
2023/07/11 08:31:18;;;;;;;8.07;5.70;;;;;;;28.22;55.44;98848.03;4480377;31;20150;-68
2023/07/11 08:33:48;;;;;;;8.80;5.60;;;;;;;28.14;55.75;98851.94;4481604;31;20092;-68
2023/07/11 08:36:15;;;;;;;6.47;5.35;;;;;;;28.48;54.02;98851.81;4477505;31;20088;-68
2023/07/11 08:38:45;;;;;;;11.82;5.55;;;;;;;28.57;54.69;98854.88;4480981;31;20101;-68
2023/07/11 08:41:19;;;;;;;6.55;5.32;;;;;;;28.91;54.12;98854.69;4479912;31;20112;-68
2023/07/11 08:43:48;;;;;;;7.45;5.68;;;;;;;28.65;54.83;98856.34;4478918;31;20127;-68
2023/07/11 08:46:17;;;;;;;8.48;5.68;;;;;;;28.86;53.23;98849.28;4476739;31;20139;-68
2023/07/11 08:48:51;;;;;;;7.55;5.50;;;;;;;28.56;51.65;98853.25;4478252;31;20518;-68
2023/07/11 08:51:25;;;;;;;7.78;5.18;;;;;;;28.57;50.91;98854.06;4475635;31;20164;-68
2023/07/11 08:54:15;;;;;;;8.00;5.18;;;;;;;28.37;50.47;98855.44;4479417;31;20111;-68
2023/07/11 08:56:44;;;;;;;6.95;4.87;;;;;;;28.46;49.40;98848.56;4478103;32;20097;-68
2023/07/11 08:59:14;;;;;;;7.93;5.00;;;;;;;28.45;48.22;98852.31;4477442;31;20151;-68
2023/07/11 09:01:49;;;;;;;7.22;5.10;;;;;;;28.33;47.26;98854.34;4480305;32;20096;-68
2023/07/11 09:04:18;;;;;;;7.07;5.28;;;;;;;28.81;47.62;98863.53;4475987;31;20104;-68
2023/07/11 09:06:53;;;;;;;7.50;5.00;;;;;;;29.22;44.39;98870.38;4478659;31;20239;-68
2023/07/11 09:09:20;;;;;;;12.50;6.57;;;;;;;28.86;44.07;98860.06;4476855;31;20424;-68
2023/07/11 09:12:06;;;;;;;7.53;4.65;;;;;;;29.13;43.31;98861.91;4479638;31;20151;-68
2023/07/11 09:15:03;;;;;;;6.07;5.12;;;;;;;29.14;42.78;98855.44;4476678;31;20491;-68
2023/07/11 09:17:38;;;;;;;9.68;4.82;;;;;;;28.77;43.22;98859.69;4399175;32;20125;-68
2023/07/11 09:20:21;;;;;;;6.72;5.32;;;;;;;28.94;43.56;98864.19;4396046;32;20103;-69
2023/07/11 09:23:09;;;;;;;10.10;5.72;;;;;;;29.09;42.23;98867.00;4399652;32;20664;-68
2023/07/11 09:25:39;;;;;;;9.15;5.15;;;;;;;28.92;45.34;98860.91;4402321;32;20165;-68
2023/07/11 09:28:13;;;;;;;6.55;5.35;;;;;;;29.28;43.63;98863.94;4401593;32;20133;-68
2023/07/11 09:30:54;;;;;;;7.35;5.35;;;;;;;29.42;45.49;98858.91;4402882;32;20285;-68
2023/07/11 09:33:30;;;;;;;6.65;4.82;;;;;;;29.60;45.25;98855.00;4398655;32;20129;-68
2023/07/11 09:36:02;;;;;;;7.30;4.78;;;;;;;29.66;45.35;98862.88;4401996;32;20244;-68
2023/07/11 09:38:43;;;;;;;6.30;5.12;;;;;;;29.73;42.75;98859.94;4397995;32;20099;-68
2023/07/11 09:41:38;;;;;;;6.80;4.93;;;;;;;29.80;41.27;98868.62;4402203;32;20114;-68
2023/07/11 09:44:18;;;;;;;7.62;5.25;;;;;;;29.44;41.27;98848.69;4403107;32;20531;-69
2023/07/11 09:46:46;;;;;;;7.97;5.35;;;;;;;29.30;41.93;98853.72;4394509;32;20097;-68
2023/07/11 09:49:18;;;;;;;13.18;5.40;;;;;;;29.08;41.40;98848.38;4403964;32;20124;-68
2023/07/11 09:52:05;;;;;;;6.18;4.28;;;;;;;29.26;42.23;98855.31;4390643;32;20130;-68
2023/07/11 09:54:45;;;;;;;10.10;5.70;;;;;;;29.36;42.30;98850.00;4449224;31;20096;-68
2023/07/11 09:57:29;;;;;;;9.57;5.32;;;;;;;29.60;43.19;98853.13;4484428;31;20567;-68
2023/07/11 10:00:00;;;;;;;10.10;5.75;;;;;;;29.82;43.04;98855.72;4491634;31;20122;-68
2023/07/11 10:02:34;;;;;;;8.30;5.50;;;;;;;29.54;43.77;98848.78;4486231;31;20104;-68
2023/07/11 10:05:02;;;;;;;6.85;5.15;;;;;;;30.15;43.20;98855.63;4484129;31;20097;-68
2023/07/11 10:07:31;;;;;;;8.70;5.20;;;;;;;29.80;43.97;98844.34;4489657;31;20176;-68
2023/07/11 10:10:02;;;;;;;12.75;5.60;;;;;;;29.68;45.08;98857.22;4483692;31;20127;-68
2023/07/11 10:12:31;;;;;;;7.37;5.60;;;;;;;29.67;44.57;98852.88;4480657;31;20127;-68
2023/07/11 10:15:00;;;;;;;6.20;5.12;;;;;;;29.94;44.51;98855.50;4479692;31;20454;-68
2023/07/11 10:17:33;;;;;;;10.25;6.22;;;;;;;29.89;44.24;98850.91;4478185;31;20092;-68
2023/07/11 10:20:04;;;;;;;8.80;5.87;;;;;;;29.81;44.79;98851.41;4485815;32;20152;-68
2023/07/11 10:22:53;;;;;;;7.25;5.75;;;;;;;30.01;45.55;98855.25;4485323;31;20084;-68
2023/07/11 10:25:31;;;;;;;7.90;5.32;;;;;;;30.25;43.20;98851.06;4475017;31;20097;-68
2023/07/11 10:28:04;;;;;;;8.27;6.15;;;;;;;30.29;44.05;98851.34;4490951;31;20100;-69
2023/07/11 10:30:34;;;;;;;6.43;5.50;;;;;;;30.26;43.60;98847.25;4483515;31;20513;-68
2023/07/11 10:33:15;;;;;;;7.62;5.62;;;;;;;29.96;44.67;98852.53;4488565;31;20488;-68
2023/07/11 10:35:54;;;;;;;10.20;6.15;;;;;;;30.17;44.33;98853.44;4477830;31;20096;-68
2023/07/11 10:38:28;;;;;;;9.65;6.12;;;;;;;30.11;43.40;98849.91;4479997;32;20151;-68
2023/07/11 10:40:58;;;;;;;7.43;5.70;;;;;;;30.50;43.26;98841.44;4475974;31;20126;-68
2023/07/11 10:43:35;;;;;;;7.68;5.97;;;;;;;30.62;43.75;98841.19;4485561;31;20126;-68
2023/07/11 10:46:09;;;;;;;8.77;6.45;;;;;;;30.88;42.88;98833.13;4475511;31;20116;-69
2023/07/11 10:48:45;;;;;;;7.80;6.25;;;;;;;31.13;42.52;98843.19;4476106;31;20096;-69
2023/07/11 10:51:19;;;;;;;9.73;5.72;;;;;;;30.93;41.28;98842.06;4476924;31;20088;-69
2023/07/11 10:54:07;;;;;;;;;;;;;;;30.87;42.04;98834.19;4481783;31;20123;-70
2023/07/11 10:56:48;;;;;;;8.73;5.50;;;;;;;30.88;42.41;98844.75;4466945;32;20027;-68
2023/07/11 10:59:20;;;;;;;8.55;6.15;;;;;;;30.89;42.41;98832.03;4482497;32;20096;-67
2023/07/11 11:02:12;;;;;;;12.13;6.03;;;;;;;30.88;42.62;98833.91;4470472;31;20544;-67
2023/07/11 11:04:39;;;;;;;8.30;6.37;;;;;;;30.75;42.44;98837.16;4440393;32;20124;-69
2023/07/11 11:07:15;;;;;;;9.98;6.00;;;;;;;30.74;41.82;98830.13;4434808;32;20490;-67
2023/07/11 11:10:16;;;;;;;8.63;5.93;;;;;;;30.97;42.40;98826.87;4423332;32;20116;-67
2023/07/11 11:12:47;;;;;;;8.15;5.68;;;;;;;31.05;41.52;98830.19;4436907;32;20412;-69
2023/07/11 11:15:43;;;;;;;7.57;5.75;;;;;;;30.77;42.68;98807.97;4426104;32;20132;-68
2023/07/11 11:18:17;;;;;;;7.37;5.80;;;;;;;31.18;42.56;98821.53;4422783;32;20135;-68
2023/07/11 11:20:50;;;;;;;10.80;6.55;;;;;;;30.92;41.90;98818.78;4441865;32;20104;-68
2023/07/11 11:24:02;;;;;;;10.68;6.25;;;;;;;30.98;42.09;98819.63;4410537;32;20124;-68
2023/07/11 11:26:39;;;;;;;9.77;6.75;;;;;;;31.13;42.18;98805.28;4449047;32;20124;-68
2023/07/11 11:29:46;;;;;;;9.70;6.07;;;;;;;30.82;42.83;98810.66;4439187;32;20558;-69
2023/07/11 11:32:52;;;;;;;9.00;6.22;;;;;;;31.07;42.85;98817.19;4451815;32;20113;-68
2023/07/11 11:35:46;;;;;;;9.85;6.35;;;;;;;31.35;41.64;98809.59;4444270;32;20081;-68
2023/07/11 11:38:34;;;;;;;9.40;5.95;;;;;;;30.88;43.62;98811.47;4436456;32;20913;-69
2023/07/11 11:41:09;;;;;;;9.07;6.43;;;;;;;31.24;42.09;98816.91;4440360;31;20146;-69
2023/07/11 11:43:37;;;;;;;8.32;6.50;;;;;;;30.92;42.26;98804.44;4501057;31;20088;-69
2023/07/11 11:46:25;;;;;;;9.27;6.00;;;;;;;31.20;42.64;98805.81;4481406;31;20095;-69
2023/07/11 11:48:59;;;;;;;11.87;5.93;;;;;;;30.99;42.14;98788.78;4492080;31;20096;-68
2023/07/11 11:51:30;;;;;;;;;;;;;;;31.09;42.38;98793.38;4492771;31;20568;-68
2023/07/11 11:54:13;;;;;;;9.75;6.32;;;;;;;31.05;42.26;98795.00;4500729;31;20483;-68